Time;durP1;ratioP1;P1;durP2;ratioP2;P2;SDS_P1;SDS_P2;PMS_P1;PMS_P2;Temp;Humidity;BMP_temperature;BMP_pressure;BME280_temperature;BME280_humidity;BME280_pressure;Samples;Min_cycle;Max_cycle;Signal;HPM_P1;HPM_P2
2023/08/21 00:00:56;;;;;;;9.68;5.43;;;;;;;;;;5017362;28;20033;-72
2023/08/21 00:03:42;;;;;;;8.98;5.63;;;;;;;;;;5014955;28;20060;-72
2023/08/21 00:06:28;;;;;;;9.35;5.45;;;;;;;;;;5030674;28;20040;-72
2023/08/21 00:09:14;;;;;;;10.40;6.38;;;;;;;;;;5031242;28;20124;-71
2023/08/21 00:11:59;;;;;;;10.27;6.00;;;;;;;;;;5061585;28;20450;-80
2023/08/21 00:14:44;;;;;;;7.68;5.88;;;;;;;;;;5045518;28;20041;-81
2023/08/21 00:17:29;;;;;;;8.57;5.57;;;;;;;;;;5046370;28;20098;-80
2023/08/21 00:20:15;;;;;;;7.40;5.38;;;;;;;;;;5061298;28;20460;-79
2023/08/21 00:23:00;;;;;;;7.00;5.57;;;;;;;;;;5047650;28;20043;-80
2023/08/21 00:25:46;;;;;;;8.90;5.35;;;;;;;;;;5046208;28;20029;-81
2023/08/21 00:28:33;;;;;;;9.90;6.05;;;;;;;;;;5032981;28;20041;-65
2023/08/21 00:31:18;;;;;;;8.55;5.63;;;;;;;;;;5044665;28;20028;-64
2023/08/21 00:34:03;;;;;;;9.98;5.22;;;;;;;;;;5046089;28;20482;-66
2023/08/21 00:36:49;;;;;;;8.63;5.13;;;;;;;;;;5046427;28;20041;-65
2023/08/21 00:39:34;;;;;;;8.57;5.88;;;;;;;;;;5043873;28;20040;-66
2023/08/21 00:42:19;;;;;;;11.15;5.63;;;;;;;;;;5046878;28;20039;-65
2023/08/21 00:45:08;;;;;;;11.65;5.28;;;;;;;;;;5044220;28;20037;-75
2023/08/21 00:47:53;;;;;;;11.98;5.72;;;;;;;;;;5028025;28;20601;-69
2023/08/21 00:50:38;;;;;;;6.93;5.80;;;;;;;;;;5028895;28;20124;-67
2023/08/21 00:53:24;;;;;;;8.05;5.90;;;;;;;;;;5026610;28;20510;-67
2023/08/21 00:56:09;;;;;;;8.43;5.47;;;;;;;;;;5027425;28;20036;-68
2023/08/21 00:58:55;;;;;;;9.18;5.75;;;;;;;;;;5023757;28;20095;-69
2023/08/21 01:01:40;;;;;;;8.35;5.10;;;;;;;;;;5026642;28;20036;-70
2023/08/21 01:04:25;;;;;;;8.68;5.72;;;;;;;;;;5027480;28;20045;-74
2023/08/21 01:07:13;;;;;;;6.93;5.30;;;;;;;;;;5017447;28;20041;-69
2023/08/21 01:10:00;;;;;;;8.43;5.45;;;;;;;;;;5031143;28;20025;-70
2023/08/21 01:12:50;;;;;;;9.18;5.05;;;;;;;;;;5028911;28;20045;-68
2023/08/21 01:15:35;;;;;;;;;;;;;;;;;;5026199;28;20029;-67
2023/08/21 01:18:20;;;;;;;10.93;5.80;;;;;;;;;;5028590;28;19912;-68
2023/08/21 01:21:06;;;;;;;11.98;5.80;;;;;;;;;;5030755;28;20043;-70
2023/08/21 01:23:51;;;;;;;7.75;5.88;;;;;;;;;;5043701;28;20233;-71
2023/08/21 01:26:38;;;;;;;9.38;5.80;;;;;;;;;;5032482;28;20420;-72
2023/08/21 01:29:25;;;;;;;9.07;5.47;;;;;;;;;;5032898;28;20063;-71
2023/08/21 01:32:29;;;;;;;8.68;5.50;;;;;;;;;;5030524;28;20036;-72
2023/08/21 01:35:17;;;;;;;10.20;5.70;;;;;;;;;;5030719;28;20157;-71
2023/08/21 01:38:04;;;;;;;9.98;6.22;;;;;;;;;;5046503;28;20032;-73
2023/08/21 01:40:51;;;;;;;8.07;5.60;;;;;;;;;;5044606;28;20435;-66
2023/08/21 01:43:36;;;;;;;10.15;6.28;;;;;;;;;;5043566;28;20081;-82
2023/08/21 01:46:21;;;;;;;9.57;6.10;;;;;;;;;;5044021;28;20046;-83
2023/08/21 01:49:06;;;;;;;6.43;4.93;;;;;;;;;;5047220;28;20155;-85
2023/08/21 01:51:51;;;;;;;10.25;6.05;;;;;;;;;;5044842;28;20063;-85
2023/08/21 01:54:37;;;;;;;9.15;5.15;;;;;;;;;;5046454;28;20033;-81
2023/08/21 01:57:23;;;;;;;8.07;5.05;;;;;;;;;;5044864;28;20040;-81
2023/08/21 02:00:08;;;;;;;9.35;5.50;;;;;;;;;;5044769;28;20127;-69
2023/08/21 02:02:53;;;;;;;9.15;6.05;;;;;;;;;;5043209;28;20136;-64
2023/08/21 02:05:39;;;;;;;8.27;5.57;;;;;;;;;;5040527;28;20185;-64
2023/08/21 02:08:27;;;;;;;7.47;5.18;;;;;;;;;;5045636;28;20595;-64
2023/08/21 02:11:12;;;;;;;11.57;5.75;;;;;;;;;;5054596;28;20040;-67
2023/08/21 02:13:57;;;;;;;8.02;4.95;;;;;;;;;;5044119;28;20510;-65
2023/08/21 02:16:42;;;;;;;12.13;5.95;;;;;;;;;;5042982;28;20408;-64
2023/08/21 02:19:27;;;;;;;9.45;5.05;;;;;;;;;;5044506;28;20048;-68
2023/08/21 02:22:13;;;;;;;9.35;5.60;;;;;;;;;;5045949;28;20028;-80
2023/08/21 02:24:58;;;;;;;8.43;6.35;;;;;;;;;;5045140;28;20087;-82
2023/08/21 02:27:43;;;;;;;9.80;5.60;;;;;;;;;;5044089;28;20257;-79
2023/08/21 02:30:28;;;;;;;6.55;4.97;;;;;;;;;;5041181;28;20033;-80
2023/08/21 02:33:14;;;;;;;9.00;5.15;;;;;;;;;;5045508;28;20025;-79
2023/08/21 02:35:59;;;;;;;10.35;6.18;;;;;;;;;;5040469;28;20029;-67
2023/08/21 02:38:44;;;;;;;7.75;5.20;;;;;;;;;;5042202;28;20494;-68
2023/08/21 02:41:29;;;;;;;11.88;6.63;;;;;;;;;;5043154;28;20041;-68
2023/08/21 02:44:14;;;;;;;11.07;5.43;;;;;;;;;;5041867;28;20498;-68
2023/08/21 02:47:00;;;;;;;8.82;5.90;;;;;;;;;;5041483;28;20201;-68
2023/08/21 02:49:45;;;;;;;9.35;5.75;;;;;;;;;;5052661;28;20031;-68
2023/08/21 02:52:31;;;;;;;10.00;6.00;;;;;;;;;;5038895;28;20051;-68
2023/08/21 02:55:16;;;;;;;9.85;5.75;;;;;;;;;;5042920;28;20032;-66
2023/08/21 02:58:01;;;;;;;9.43;5.63;;;;;;;;;;5044928;28;20352;-71
2023/08/21 03:00:46;;;;;;;8.30;6.00;;;;;;;;;;5042911;28;20059;-72
2023/08/21 03:03:33;;;;;;;11.55;6.00;;;;;;;;;;5045688;28;20445;-73
2023/08/21 03:06:19;;;;;;;7.63;5.22;;;;;;;;;;5044167;28;20085;-72
2023/08/21 03:09:05;;;;;;;10.02;6.30;;;;;;;;;;5041606;28;20036;-73
2023/08/21 03:11:50;;;;;;;10.77;5.80;;;;;;;;;;5044152;28;20032;-70
2023/08/21 03:14:35;;;;;;;9.13;5.65;;;;;;;;;;5043846;28;20435;-69
2023/08/21 03:17:21;;;;;;;9.73;5.32;;;;;;;;;;5042325;28;20045;-61
2023/08/21 03:20:06;;;;;;;8.57;5.22;;;;;;;;;;5040668;28;20037;-65
2023/08/21 03:22:51;;;;;;;7.20;5.78;;;;;;;;;;5039723;28;20183;-65
2023/08/21 03:25:37;;;;;;;12.27;5.78;;;;;;;;;;5041631;28;20040;-65
2023/08/21 03:28:22;;;;;;;9.25;5.40;;;;;;;;;;5042028;28;20043;-64
2023/08/21 03:31:09;;;;;;;9.45;5.38;;;;;;;;;;5039246;28;20046;-72
2023/08/21 03:33:56;;;;;;;10.02;5.63;;;;;;;;;;5042377;28;20044;-67
2023/08/21 03:36:41;;;;;;;11.63;6.13;;;;;;;;;;5041682;28;20036;-73
2023/08/21 03:39:26;;;;;;;12.88;5.70;;;;;;;;;;5043973;28;20053;-71
2023/08/21 03:42:11;;;;;;;10.25;5.60;;;;;;;;;;5045451;28;20072;-71
2023/08/21 03:44:57;;;;;;;10.30;5.40;;;;;;;;;;5041534;28;20037;-70
2023/08/21 03:47:42;;;;;;;6.70;5.03;;;;;;;;;;5044412;28;20078;-70
2023/08/21 03:50:27;;;;;;;8.02;5.38;;;;;;;;;;5047348;28;20112;-68
2023/08/21 03:53:12;;;;;;;8.68;5.32;;;;;;;;;;5047384;28;20467;-81
2023/08/21 03:55:57;;;;;;;9.52;5.78;;;;;;;;;;5045013;28;20243;-81
2023/08/21 03:58:43;;;;;;;10.57;4.95;;;;;;;;;;5048341;28;20097;-81
2023/08/21 04:01:28;;;;;;;8.82;5.75;;;;;;;;;;5047909;28;20040;-81
2023/08/21 04:04:13;;;;;;;9.57;6.30;;;;;;;;;;5048956;28;20033;-82
2023/08/21 04:06:58;;;;;;;8.70;6.30;;;;;;;;;;5034514;28;20036;-81
2023/08/21 04:09:44;;;;;;;8.50;6.20;;;;;;;;;;5047813;28;20033;-74
2023/08/21 04:12:29;;;;;;;7.93;5.82;;;;;;;;;;5045516;28;20128;-69
2023/08/21 04:15:14;;;;;;;9.38;6.18;;;;;;;;;;5042264;28;20421;-69
2023/08/21 04:17:59;;;;;;;9.35;6.82;;;;;;;;;;5044835;28;20044;-69
2023/08/21 04:20:47;;;;;;;9.68;5.80;;;;;;;;;;5048617;28;20024;-71
2023/08/21 04:23:32;;;;;;;9.15;6.20;;;;;;;;;;5056128;28;20045;-68
2023/08/21 04:26:17;;;;;;;11.00;6.50;;;;;;;;;;5046445;28;20399;-70
2023/08/21 04:29:03;;;;;;;10.25;5.85;;;;;;;;;;5044219;28;20036;-65
2023/08/21 04:31:48;;;;;;;12.75;6.95;;;;;;;;;;5043847;28;20029;-69
2023/08/21 04:34:33;;;;;;;11.50;5.82;;;;;;;;;;5044402;28;20039;-66
2023/08/21 04:37:18;;;;;;;8.80;6.38;;;;;;;;;;5041648;28;20045;-66
2023/08/21 04:40:04;;;;;;;9.98;6.32;;;;;;;;;;5063544;28;20067;-66
2023/08/21 04:42:49;;;;;;;10.30;5.78;;;;;;;;;;5049424;28;20049;-65
2023/08/21 04:45:34;;;;;;;9.15;4.80;;;;;;;;;;5049403;28;20136;-66
2023/08/21 04:48:21;;;;;;;8.82;5.50;;;;;;;;;;5048966;28;20113;-74
2023/08/21 04:51:06;;;;;;;11.20;5.57;;;;;;;;;;5038507;28;20071;-73
2023/08/21 04:53:51;;;;;;;8.55;5.25;;;;;;;;;;5047013;28;20033;-71
2023/08/21 04:56:36;;;;;;;11.23;6.43;;;;;;;;;;5035469;28;20032;-73
2023/08/21 04:59:22;;;;;;;10.23;6.18;;;;;;;;;;5033706;28;20029;-72
2023/08/21 05:02:07;;;;;;;9.65;6.63;;;;;;;;;;5048491;28;20040;-72
2023/08/21 05:04:52;;;;;;;10.32;6.10;;;;;;;;;;5049592;28;20052;-73
2023/08/21 05:07:37;;;;;;;9.23;5.75;;;;;;;;;;5046075;28;20502;-66
2023/08/21 05:10:23;;;;;;;7.90;5.03;;;;;;;;;;5047190;28;20021;-65
2023/08/21 05:13:08;;;;;;;9.70;5.10;;;;;;;;;;5047458;28;20460;-65
2023/08/21 05:15:57;;;;;;;11.70;5.70;;;;;;;;;;5051984;28;20112;-66
2023/08/21 05:18:42;;;;;;;9.02;4.90;;;;;;;;;;5031605;28;20076;-65
2023/08/21 05:21:27;;;;;;;8.45;5.70;;;;;;;;;;5045862;28;20041;-65
2023/08/21 05:24:13;;;;;;;9.63;5.55;;;;;;;;;;5039556;28;20060;-76
2023/08/21 05:26:58;;;;;;;10.48;5.57;;;;;;;;;;5045082;28;20167;-78
2023/08/21 05:29:43;;;;;;;10.73;6.25;;;;;;;;;;5043560;28;20025;-78
2023/08/21 05:32:28;;;;;;;10.07;6.20;;;;;;;;;;5045858;28;20036;-79
2023/08/21 05:35:13;;;;;;;9.85;5.68;;;;;;;;;;5043267;28;20079;-80
2023/08/21 05:37:59;;;;;;;14.25;6.97;;;;;;;;;;5033452;28;20043;-73
2023/08/21 05:40:44;;;;;;;8.18;6.03;;;;;;;;;;5045984;28;20086;-72
2023/08/21 05:43:30;;;;;;;11.18;6.65;;;;;;;;;;5046737;28;20041;-68
2023/08/21 05:46:15;;;;;;;10.05;5.38;;;;;;;;;;5059061;28;20029;-65
2023/08/21 05:49:00;;;;;;;9.20;6.60;;;;;;;;;;5059563;28;20116;-65
2023/08/21 05:51:46;;;;;;;13.07;6.38;;;;;;;;;;5047544;28;20039;-65
2023/08/21 05:54:31;;;;;;;10.10;6.35;;;;;;;;;;5048627;28;20380;-68
2023/08/21 05:57:16;;;;;;;11.70;5.85;;;;;;;;;;5046358;28;20032;-69
2023/08/21 06:00:02;;;;;;;8.93;5.75;;;;;;;;;;5048565;28;20615;-70
2023/08/21 06:02:47;;;;;;;10.38;6.30;;;;;;;;;;5036670;28;20033;-69
2023/08/21 06:05:32;;;;;;;7.63;4.95;;;;;;;;;;5047816;28;20527;-69
2023/08/21 06:08:18;;;;;;;7.50;5.43;;;;;;;;;;5042995;28;20053;-70
2023/08/21 06:11:03;;;;;;;8.10;5.57;;;;;;;;;;5048156;28;20036;-71
2023/08/21 06:13:48;;;;;;;6.85;4.82;;;;;;;;;;5044714;28;20152;-70
2023/08/21 06:16:33;;;;;;;10.77;5.50;;;;;;;;;;5056690;28;20041;-73
2023/08/21 06:19:19;;;;;;;9.57;5.32;;;;;;;;;;5046364;28;20044;-72
2023/08/21 06:22:04;;;;;;;9.43;5.07;;;;;;;;;;5015144;28;20040;-71
2023/08/21 06:24:50;;;;;;;8.82;5.93;;;;;;;;;;5044076;28;20555;-71
2023/08/21 06:27:35;;;;;;;6.63;4.63;;;;;;;;;;5047006;28;20037;-71
2023/08/21 06:30:20;;;;;;;10.13;5.13;;;;;;;;;;5048153;28;20071;-73
2023/08/21 06:33:05;;;;;;;7.35;5.38;;;;;;;;;;5047555;28;20091;-71
2023/08/21 06:35:50;;;;;;;12.48;5.15;;;;;;;;;;5048322;28;20029;-71
2023/08/21 06:38:36;;;;;;;7.85;5.63;;;;;;;;;;5047610;28;20032;-71
2023/08/21 06:41:21;;;;;;;7.30;5.10;;;;;;;;;;5047849;28;20025;-70
2023/08/21 06:44:06;;;;;;;7.07;5.20;;;;;;;;;;5047815;28;20029;-71
2023/08/21 06:46:52;;;;;;;8.55;4.80;;;;;;;;;;5047533;28;20097;-69
2023/08/21 06:49:37;;;;;;;8.50;6.40;;;;;;;;;;5047973;28;20055;-70
2023/08/21 06:52:22;;;;;;;9.43;5.88;;;;;;;;;;5047561;28;20031;-71
2023/08/21 06:55:07;;;;;;;6.90;5.22;;;;;;;;;;5047417;28;20039;-74
2023/08/21 06:57:53;;;;;;;12.05;5.55;;;;;;;;;;5047575;28;20549;-70
2023/08/21 07:00:38;;;;;;;8.32;6.03;;;;;;;;;;5047791;28;20110;-70
2023/08/21 07:03:23;;;;;;;11.25;5.55;;;;;;;;;;5033706;28;20083;-72
2023/08/21 07:06:09;;;;;;;7.10;5.50;;;;;;;;;;5047511;28;20037;-72
2023/08/21 07:08:54;;;;;;;7.88;5.20;;;;;;;;;;5038900;28;20051;-70
2023/08/21 07:11:39;;;;;;;7.88;5.75;;;;;;;;;;5047615;28;20032;-71
2023/08/21 07:14:24;;;;;;;8.38;5.55;;;;;;;;;;5047566;28;20363;-70
2023/08/21 07:17:09;;;;;;;11.15;5.32;;;;;;;;;;5046971;28;20033;-72
2023/08/21 07:19:55;;;;;;;7.68;4.82;;;;;;;;;;5045329;28;20396;-70
2023/08/21 07:22:40;;;;;;;9.68;5.22;;;;;;;;;;5047592;28;20036;-69
2023/08/21 07:25:25;;;;;;;10.95;5.22;;;;;;;;;;5049051;28;20604;-69
2023/08/21 07:28:11;;;;;;;7.00;5.00;;;;;;;;;;5050890;28;20125;-69
2023/08/21 07:30:57;;;;;;;7.15;5.47;;;;;;;;;;5051532;28;20032;-71
2023/08/21 07:33:42;;;;;;;13.00;6.15;;;;;;;;;;5051108;28;20033;-64
2023/08/21 07:36:27;;;;;;;8.82;5.40;;;;;;;;;;5065149;28;20268;-65
2023/08/21 07:39:12;;;;;;;6.75;4.82;;;;;;;;;;5050514;28;20480;-66
2023/08/21 07:41:57;;;;;;;7.70;5.05;;;;;;;;;;5051256;28;20035;-65
2023/08/21 07:44:44;;;;;;;8.00;5.65;;;;;;;;;;5051313;28;20045;-64
2023/08/21 07:47:29;;;;;;;10.40;5.43;;;;;;;;;;5051122;28;20045;-66
2023/08/21 07:50:16;;;;;;;8.32;5.78;;;;;;;;;;5050795;28;20038;-70
2023/08/21 07:53:01;;;;;;;7.45;5.97;;;;;;;;;;5050995;28;20024;-66
2023/08/21 07:55:47;;;;;;;9.55;5.35;;;;;;;;;;5050623;28;20028;-67
2023/08/21 07:58:32;;;;;;;9.50;5.90;;;;;;;;;;5050726;28;20049;-66
2023/08/21 08:01:17;;;;;;;10.85;5.70;;;;;;;;;;5064684;28;20383;-65
2023/08/21 08:04:03;;;;;;;9.48;5.40;;;;;;;;;;5050386;28;20111;-67
2023/08/21 08:06:48;;;;;;;8.95;5.68;;;;;;;;;;5051102;28;20040;-70
2023/08/21 08:09:33;;;;;;;7.45;5.45;;;;;;;;;;5050342;28;20033;-69
2023/08/21 08:12:18;;;;;;;9.90;5.85;;;;;;;;;;5064712;28;20383;-71
2023/08/21 08:15:04;;;;;;;7.32;5.95;;;;;;;;;;5064921;28;20036;-70
2023/08/21 08:17:53;;;;;;;9.25;5.90;;;;;;;;;;5050450;28;20029;-70
2023/08/21 08:20:38;;;;;;;8.40;5.72;;;;;;;;;;5050738;28;20400;-69
2023/08/21 08:23:23;;;;;;;8.32;5.40;;;;;;;;;;5049949;28;20631;-70
2023/08/21 08:26:08;;;;;;;7.78;6.00;;;;;;;;;;5064634;28;20032;-69
2023/08/21 08:28:54;;;;;;;9.75;6.03;;;;;;;;;;5050254;28;20051;-72
2023/08/21 08:31:39;;;;;;;10.68;6.72;;;;;;;;;;5050310;28;20049;-71
2023/08/21 08:34:24;;;;;;;9.27;6.15;;;;;;;;;;5049767;28;20495;-71
2023/08/21 08:37:09;;;;;;;12.23;6.03;;;;;;;;;;5049995;28;20029;-71
2023/08/21 08:39:54;;;;;;;10.80;5.80;;;;;;;;;;5049838;28;20043;-70
2023/08/21 08:42:40;;;;;;;12.48;6.65;;;;;;;;;;5063805;28;20031;-70
2023/08/21 08:45:32;;;;;;;14.50;6.47;;;;;;;;;;5036268;28;20079;-75
2023/08/21 08:48:17;;;;;;;10.40;6.65;;;;;;;;;;5049817;28;20029;-76
2023/08/21 08:51:06;;;;;;;10.43;7.00;;;;;;;;;;5039178;28;20033;-76
2023/08/21 08:53:51;;;;;;;11.20;7.22;;;;;;;;;;5050862;28;20124;-77
2023/08/21 08:56:36;;;;;;;9.48;6.07;;;;;;;;;;5056849;28;20380;-78
2023/08/21 08:59:22;;;;;;;9.95;6.70;;;;;;;;;;5048959;28;20044;-77
2023/08/21 09:02:07;;;;;;;9.20;6.07;;;;;;;;;;5049134;28;20082;-74
2023/08/21 09:04:52;;;;;;;11.07;6.15;;;;;;;;;;5048097;28;20029;-69
2023/08/21 09:07:37;;;;;;;11.88;7.05;;;;;;;;;;5049484;28;20083;-71
2023/08/21 09:10:25;;;;;;;11.05;6.57;;;;;;;;;;5049657;28;20043;-71
2023/08/21 09:13:14;;;;;;;11.13;6.25;;;;;;;;;;5049237;28;20075;-69
2023/08/21 09:16:00;;;;;;;14.13;6.72;;;;;;;;;;5049535;28;20076;-70
2023/08/21 09:18:56;;;;;;;11.38;6.53;;;;;;;;;;5049289;28;20031;-69
2023/08/21 09:21:42;;;;;;;9.63;6.72;;;;;;;;;;5049505;28;20033;-78
2023/08/21 09:24:27;;;;;;;9.13;6.30;;;;;;;;;;5048862;28;20068;-72
2023/08/21 09:27:14;;;;;;;10.40;6.57;;;;;;;;;;5035271;28;20037;-70
2023/08/21 09:30:02;;;;;;;10.02;7.05;;;;;;;;;;5048692;28;20492;-72
2023/08/21 09:32:56;;;;;;;8.88;5.97;;;;;;;;;;5063281;28;20094;-71
2023/08/21 09:35:42;;;;;;;9.88;5.80;;;;;;;;;;5037335;28;20039;-72
2023/08/21 09:38:27;;;;;;;10.15;5.95;;;;;;;;;;5035101;28;20368;-71
2023/08/21 09:41:12;;;;;;;10.35;6.18;;;;;;;;;;5040332;28;20531;-71
2023/08/21 09:44:01;;;;;;;8.55;4.90;;;;;;;;;;5049288;28;20124;-78
2023/08/21 09:46:48;;;;;;;9.43;5.82;;;;;;;;;;5034359;28;20410;-78
2023/08/21 09:49:34;;;;;;;7.75;5.25;;;;;;;;;;5048665;28;20041;-80
2023/08/21 09:52:19;;;;;;;6.35;4.57;;;;;;;;;;5048802;28;20475;-78
2023/08/21 09:55:05;;;;;;;10.48;5.45;;;;;;;;;;5047548;28;20056;-77
2023/08/21 09:57:58;;;;;;;9.18;5.22;;;;;;;;;;5037396;28;20036;-71
2023/08/21 10:00:43;;;;;;;11.27;5.55;;;;;;;;;;5048391;28;20033;-68
2023/08/21 10:03:29;;;;;;;13.65;6.55;;;;;;;;;;5047994;28;20438;-65
2023/08/21 10:06:18;;;;;;;8.55;5.32;;;;;;;;;;5045804;28;20025;-66
2023/08/21 10:09:03;;;;;;;6.25;4.72;;;;;;;;;;5046805;28;20086;-66
2023/08/21 10:11:49;;;;;;;8.70;5.60;;;;;;;;;;5036082;28;20076;-65
2023/08/21 10:14:35;;;;;;;6.95;4.50;;;;;;;;;;5047844;28;20064;-70
2023/08/21 10:17:20;;;;;;;7.78;4.95;;;;;;;;;;5059584;28;20040;-70
2023/08/21 10:20:06;;;;;;;9.70;5.10;;;;;;;;;;5061636;28;20104;-68
2023/08/21 10:22:55;;;;;;;10.50;5.43;;;;;;;;;;5048226;28;20143;-69
2023/08/21 10:25:43;;;;;;;9.35;5.53;;;;;;;;;;5047925;28;20044;-71
2023/08/21 10:28:41;;;;;;;8.30;4.75;;;;;;;;;;5047689;28;20051;-72
2023/08/21 10:31:36;;;;;;;7.45;4.45;;;;;;;;;;5048206;28;20051;-71
2023/08/21 10:34:28;;;;;;;8.77;4.80;;;;;;;;;;5048045;28;20174;-78
2023/08/21 10:37:13;;;;;;;9.45;6.05;;;;;;;;;;5047524;28;20075;-70
2023/08/21 10:39:58;;;;;;;7.35;5.13;;;;;;;;;;5047520;28;20056;-72
2023/08/21 10:42:43;;;;;;;6.97;5.28;;;;;;;;;;5047929;28;20040;-70
2023/08/21 10:45:29;;;;;;;9.68;4.63;;;;;;;;;;5047569;28;20055;-71
2023/08/21 10:48:14;;;;;;;8.00;5.15;;;;;;;;;;5047697;28;20506;-70
2023/08/21 10:51:03;;;;;;;14.18;5.15;;;;;;;;;;5047915;28;20045;-71
2023/08/21 10:53:49;;;;;;;10.18;5.72;;;;;;;;;;5044477;28;20028;-73
2023/08/21 10:56:34;;;;;;;8.98;5.53;;;;;;;;;;5047651;28;20033;-72
2023/08/21 10:59:19;;;;;;;9.40;5.35;;;;;;;;;;5047083;28;20472;-70
2023/08/21 11:02:05;;;;;;;7.22;5.05;;;;;;;;;;5047867;28;20036;-69
2023/08/21 11:04:50;;;;;;;9.90;5.25;;;;;;;;;;5047672;28;20245;-68
2023/08/21 11:07:48;;;;;;;8.40;4.75;;;;;;;;;;5033691;28;20086;-71
2023/08/21 11:10:33;;;;;;;9.00;4.97;;;;;;;;;;5047431;28;20072;-73
2023/08/21 11:13:19;;;;;;;7.75;4.85;;;;;;;;;;5047452;28;20124;-76
2023/08/21 11:16:05;;;;;;;12.48;5.63;;;;;;;;;;5047191;28;20543;-75
2023/08/21 11:18:50;;;;;;;9.90;5.40;;;;;;;;;;5046610;28;20080;-76
2023/08/21 11:21:36;;;;;;;13.77;6.13;;;;;;;;;;5047655;28;20040;-77
2023/08/21 11:24:21;;;;;;;9.65;5.65;;;;;;;;;;5047359;28;20079;-74
2023/08/21 11:27:07;;;;;;;8.35;5.65;;;;;;;;;;5035018;28;20376;-75
2023/08/21 11:29:52;;;;;;;8.43;5.00;;;;;;;;;;5047277;28;20040;-70
2023/08/21 11:32:37;;;;;;;10.82;5.75;;;;;;;;;;5047877;28;20525;-78
2023/08/21 11:35:22;;;;;;;10.60;6.55;;;;;;;;;;5047275;28;20052;-78
2023/08/21 11:38:17;;;;;;;10.48;5.18;;;;;;;;;;5047962;28;20111;-80
2023/08/21 11:41:05;;;;;;;9.90;5.38;;;;;;;;;;5046833;28;20527;-78
2023/08/21 11:43:51;;;;;;;9.37;5.73;;;;;;;;;;5047370;28;20029;-79
2023/08/21 11:46:36;;;;;;;10.20;5.30;;;;;;;;;;5047618;28;20044;-78
2023/08/21 11:49:25;;;;;;;7.88;4.78;;;;;;;;;;5046610;28;20033;-68
2023/08/21 11:52:10;;;;;;;8.85;5.45;;;;;;;;;;5047372;28;20032;-70
2023/08/21 11:54:56;;;;;;;10.48;5.60;;;;;;;;;;5046849;28;20091;-69
2023/08/21 11:57:51;;;;;;;8.45;4.93;;;;;;;;;;5047318;28;20283;-70
2023/08/21 12:00:39;;;;;;;8.30;5.07;;;;;;;;;;5047037;28;20059;-70
2023/08/21 12:03:24;;;;;;;;;;;;;;;;;;5047535;28;20387;-69
2023/08/21 12:06:10;;;;;;;11.77;5.78;;;;;;;;;;5046852;28;19971;-71
2023/08/21 12:08:56;;;;;;;9.55;5.85;;;;;;;;;;5047086;28;20040;-72
2023/08/21 12:11:41;;;;;;;7.53;5.18;;;;;;;;;;5036091;28;20420;-71
2023/08/21 12:14:27;;;;;;;7.30;4.82;;;;;;;;;;5050704;28;20029;-71
2023/08/21 12:17:13;;;;;;;10.25;5.03;;;;;;;;;;5049035;28;20036;-71
2023/08/21 12:19:58;;;;;;;6.78;4.70;;;;;;;;;;5049231;28;20036;-71
2023/08/21 12:22:43;;;;;;;9.05;5.50;;;;;;;;;;5050263;28;20037;-70
2023/08/21 12:25:28;;;;;;;9.40;5.10;;;;;;;;;;5049280;28;20052;-74
2023/08/21 12:28:14;;;;;;;8.95;5.30;;;;;;;;;;5050407;28;20037;-75
2023/08/21 12:30:59;;;;;;;10.00;5.10;;;;;;;;;;5050513;28;20052;-75
2023/08/21 12:33:44;;;;;;;7.55;4.88;;;;;;;;;;5050478;28;20041;-75
2023/08/21 12:36:29;;;;;;;8.27;5.07;;;;;;;;;;5050266;28;20067;-74
2023/08/21 12:39:16;;;;;;;8.55;5.22;;;;;;;;;;5049813;28;20471;-74
2023/08/21 12:42:04;;;;;;;9.70;5.50;;;;;;;;;;5036425;28;20288;-75
2023/08/21 12:44:49;;;;;;;11.88;5.97;;;;;;;;;;5050119;28;20060;-70
2023/08/21 12:47:34;;;;;;;8.98;4.85;;;;;;;;;;5050270;28;20171;-70
2023/08/21 12:50:20;;;;;;;7.45;4.78;;;;;;;;;;5049398;28;20028;-71
2023/08/21 12:53:05;;;;;;;8.68;5.00;;;;;;;;;;5048453;28;20527;-70
2023/08/21 12:55:50;;;;;;;10.13;4.72;;;;;;;;;;5061534;28;20044;-70
2023/08/21 12:58:35;;;;;;;8.07;5.30;;;;;;;;;;5061291;28;20411;-70
2023/08/21 13:01:21;;;;;;;11.48;5.93;;;;;;;;;;5048886;28;20032;-66
2023/08/21 13:04:06;;;;;;;13.77;5.25;;;;;;;;;;5049061;28;20048;-71
2023/08/21 13:06:51;;;;;;;10.80;4.85;;;;;;;;;;5049795;28;20044;-72
2023/08/21 13:09:36;;;;;;;6.95;4.78;;;;;;;;;;5048826;28;20541;-70
2023/08/21 13:12:21;;;;;;;8.23;5.00;;;;;;;;;;5049539;28;20127;-71
2023/08/21 13:15:10;;;;;;;9.57;4.75;;;;;;;;;;5049473;28;20040;-71
2023/08/21 13:17:55;;;;;;;6.72;5.07;;;;;;;;;;5049554;28;20044;-71
2023/08/21 13:20:41;;;;;;;10.68;5.32;;;;;;;;;;5042014;28;20041;-70
2023/08/21 13:23:28;;;;;;;10.38;5.50;;;;;;;;;;5049073;28;20029;-65
2023/08/21 13:26:13;;;;;;;10.35;5.88;;;;;;;;;;5048879;28;20557;-65
2023/08/21 13:28:59;;;;;;;10.32;5.68;;;;;;;;;;5049245;28;20434;-67
2023/08/21 13:31:44;;;;;;;7.38;4.80;;;;;;;;;;5049140;28;20120;-67
2023/08/21 13:34:29;;;;;;;8.35;5.18;;;;;;;;;;5049157;28;20036;-65
2023/08/21 13:37:14;;;;;;;8.68;5.47;;;;;;;;;;5049034;28;20028;-66
2023/08/21 13:40:00;;;;;;;8.20;5.50;;;;;;;;;;5048215;28;20029;-70
2023/08/21 13:42:46;;;;;;;6.80;4.85;;;;;;;;;;5049383;28;20380;-71
2023/08/21 13:45:31;;;;;;;11.48;5.60;;;;;;;;;;5048596;28;20443;-71
2023/08/21 13:48:17;;;;;;;8.18;4.85;;;;;;;;;;5047742;28;20372;-72
2023/08/21 13:51:02;;;;;;;9.55;4.45;;;;;;;;;;5047316;28;20048;-72
2023/08/21 13:53:47;;;;;;;8.15;4.90;;;;;;;;;;5045855;28;20064;-72
2023/08/21 13:56:32;;;;;;;7.32;5.45;;;;;;;;;;5041422;28;20059;-74
2023/08/21 13:59:18;;;;;;;10.23;5.63;;;;;;;;;;5060844;28;20033;-69
2023/08/21 14:02:03;;;;;;;10.23;6.13;;;;;;;;;;5048293;28;20041;-69
2023/08/21 14:04:48;;;;;;;9.23;5.18;;;;;;;;;;5048189;28;20033;-68
2023/08/21 14:07:33;;;;;;;14.52;5.93;;;;;;;;;;5048116;28;20029;-68
2023/08/21 14:10:19;;;;;;;10.05;5.40;;;;;;;;;;5048065;28;20025;-69
2023/08/21 14:13:06;;;;;;;10.05;5.35;;;;;;;;;;5048295;28;20041;-69
2023/08/21 14:15:51;;;;;;;14.60;6.93;;;;;;;;;;5048200;28;20123;-71
2023/08/21 14:18:36;;;;;;;10.23;5.53;;;;;;;;;;5048197;28;20047;-72
2023/08/21 14:21:21;;;;;;;10.00;5.22;;;;;;;;;;5047553;28;20484;-71
2023/08/21 14:24:07;;;;;;;10.00;6.05;;;;;;;;;;5048201;28;20078;-72
2023/08/21 14:26:53;;;;;;;6.75;4.82;;;;;;;;;;5047795;28;20112;-71
2023/08/21 14:29:38;;;;;;;7.82;4.63;;;;;;;;;;5048002;28;20045;-71
2023/08/21 14:32:23;;;;;;;10.07;5.22;;;;;;;;;;5037198;28;20032;-70
2023/08/21 14:35:08;;;;;;;9.18;4.82;;;;;;;;;;5047405;28;20033;-69
2023/08/21 14:37:53;;;;;;;11.20;5.15;;;;;;;;;;5048016;28;20079;-71
2023/08/21 14:40:39;;;;;;;6.97;5.03;;;;;;;;;;5047438;28;20660;-69
2023/08/21 14:43:24;;;;;;;8.85;4.43;;;;;;;;;;5047875;28;20086;-72
2023/08/21 14:46:10;;;;;;;16.15;6.03;;;;;;;;;;5047882;28;20076;-73
2023/08/21 14:48:55;;;;;;;9.38;4.28;;;;;;;;;;5047373;28;20024;-71
2023/08/21 14:51:40;;;;;;;7.78;5.30;;;;;;;;;;5047643;28;20037;-72
2023/08/21 14:54:25;;;;;;;8.55;5.20;;;;;;;;;;5047662;28;20075;-70
2023/08/21 14:57:11;;;;;;;13.85;5.88;;;;;;;;;;5047413;28;20383;-67
2023/08/21 14:59:56;;;;;;;11.48;4.72;;;;;;;;;;5047836;28;20091;-65
2023/08/21 15:02:41;;;;;;;8.68;5.10;;;;;;;;;;5061396;28;20047;-66
2023/08/21 15:05:30;;;;;;;10.18;5.85;;;;;;;;;;5047187;28;20051;-66
2023/08/21 15:08:15;;;;;;;;;;;;;;;;;;5034166;28;20475;-67
2023/08/21 15:11:00;;;;;;;10.07;4.63;;;;;;;;;;5046485;28;19959;-77
2023/08/21 15:13:45;;;;;;;10.65;5.13;;;;;;;;;;5043741;28;20096;-71
2023/08/21 15:16:31;;;;;;;10.52;4.13;;;;;;;;;;5045467;28;20049;-69
2023/08/21 15:19:16;;;;;;;8.00;4.25;;;;;;;;;;5045217;28;20534;-69
2023/08/21 15:25:24;;;;;;;4.82;3.97;;;;;;;;;;5059935;28;20439;-69
2023/08/21 15:28:09;;;;;;;6.95;4.88;;;;;;;;;;5047288;28;20045;-66
2023/08/21 15:30:54;;;;;;;10.30;4.60;;;;;;;;;;5042230;28;20037;-66
2023/08/21 15:33:39;;;;;;;5.60;4.25;;;;;;;;;;5048839;28;20518;-66
2023/08/21 15:36:24;;;;;;;9.40;6.35;;;;;;;;;;5047423;28;20519;-65
2023/08/21 15:39:10;;;;;;;8.98;4.65;;;;;;;;;;5036298;28;20021;-64
2023/08/21 15:41:55;;;;;;;7.57;4.30;;;;;;;;;;5037213;28;20071;-68
2023/08/21 15:44:40;;;;;;;9.60;4.82;;;;;;;;;;5048270;28;20065;-69
2023/08/21 15:47:25;;;;;;;9.75;4.90;;;;;;;;;;5050578;28;20097;-67
2023/08/21 15:50:10;;;;;;;8.02;4.32;;;;;;;;;;5047978;28;20254;-68
2023/08/21 15:52:56;;;;;;;8.32;4.32;;;;;;;;;;5049918;28;20040;-67
2023/08/21 15:55:41;;;;;;;8.23;5.03;;;;;;;;;;5049256;28;20028;-68
2023/08/21 15:58:28;;;;;;;11.30;5.25;;;;;;;;;;5050281;28;20025;-67
2023/08/21 16:01:13;;;;;;;6.05;4.18;;;;;;;;;;5050881;28;20036;-66
2023/08/21 16:03:58;;;;;;;6.68;4.50;;;;;;;;;;5050800;28;20029;-67
2023/08/21 16:06:43;;;;;;;10.40;6.43;;;;;;;;;;5049160;28;20041;-65
2023/08/21 16:09:29;;;;;;;6.82;4.93;;;;;;;;;;5050129;28;20041;-68
2023/08/21 16:12:14;;;;;;;10.27;5.32;;;;;;;;;;5050198;28;20506;-68
2023/08/21 16:14:59;;;;;;;6.57;4.30;;;;;;;;;;5064383;28;20348;-69
2023/08/21 16:17:44;;;;;;;7.43;4.70;;;;;;;;;;5050204;28;20044;-68
2023/08/21 16:20:30;;;;;;;8.80;5.20;;;;;;;;;;5050792;28;20396;-69
2023/08/21 16:23:15;;;;;;;7.85;5.40;;;;;;;;;;5050416;28;20025;-68
2023/08/21 16:26:00;;;;;;;7.45;5.22;;;;;;;;;;5047515;28;20057;-69
2023/08/21 16:28:45;;;;;;;6.97;4.43;;;;;;;;;;5049758;28;20037;-67
2023/08/21 16:31:30;;;;;;;6.43;4.82;;;;;;;;;;5045442;28;20033;-68